sensor_id;sensor_type;location;lat;lon;timestamp;P1;durP1;ratioP1;P2;durP2;ratioP2
38603;SDS011;24924;50.054;8.790;2022-12-18T07:52:16;20.65;;;9.82;;
38603;SDS011;24924;50.054;8.790;2022-12-18T07:54:43;12.60;;;8.35;;
38603;SDS011;24924;50.054;8.790;2022-12-18T07:57:08;15.37;;;10.83;;
38603;SDS011;24924;50.054;8.790;2022-12-18T07:59:35;18.17;;;13.55;;
38603;SDS011;24924;50.054;8.790;2022-12-18T08:02:01;19.60;;;12.57;;
38603;SDS011;24924;50.054;8.790;2022-12-18T08:04:28;20.25;;;11.68;;
38603;SDS011;24924;50.054;8.790;2022-12-18T08:06:54;20.77;;;11.73;;
38603;SDS011;24924;50.054;8.790;2022-12-18T08:09:20;20.02;;;10.85;;
38603;SDS011;24924;50.054;8.790;2022-12-18T08:11:46;26.30;;;13.05;;
38603;SDS011;24924;50.054;8.790;2022-12-18T08:14:11;22.57;;;12.33;;
38603;SDS011;24924;50.054;8.790;2022-12-18T08:16:39;20.67;;;11.18;;
38603;SDS011;24924;50.054;8.790;2022-12-18T08:19:05;17.42;;;11.88;;
38603;SDS011;24924;50.054;8.790;2022-12-18T08:21:31;30.50;;;14.18;;
38603;SDS011;24924;50.054;8.790;2022-12-18T08:23:59;27.42;;;12.88;;
38603;SDS011;24924;50.054;8.790;2022-12-18T08:26:27;22.40;;;12.23;;
38603;SDS011;24924;50.054;8.790;2022-12-18T08:28:55;24.10;;;12.73;;
38603;SDS011;24924;50.054;8.790;2022-12-18T08:31:22;25.80;;;12.35;;
38603;SDS011;24924;50.054;8.790;2022-12-18T08:33:49;25.15;;;13.35;;
38603;SDS011;24924;50.054;8.790;2022-12-18T08:36:16;23.42;;;13.90;;
38603;SDS011;24924;50.054;8.790;2022-12-18T08:38:42;21.37;;;11.97;;
38603;SDS011;24924;50.054;8.790;2022-12-18T08:41:12;23.17;;;13.65;;
38603;SDS011;24924;50.054;8.790;2022-12-18T08:43:39;28.73;;;14.70;;
38603;SDS011;24924;50.054;8.790;2022-12-18T08:46:25;26.33;;;12.30;;
38603;SDS011;24924;50.054;8.790;2022-12-18T08:48:52;22.75;;;12.93;;
38603;SDS011;24924;50.054;8.790;2022-12-18T08:51:20;26.02;;;12.93;;
38603;SDS011;24924;50.054;8.790;2022-12-18T08:53:46;23.65;;;12.93;;
38603;SDS011;24924;50.054;8.790;2022-12-18T08:56:13;29.02;;;15.30;;
38603;SDS011;24924;50.054;8.790;2022-12-18T08:58:43;33.57;;;15.63;;
38603;SDS011;24924;50.054;8.790;2022-12-18T09:01:09;31.23;;;14.55;;
38603;SDS011;24924;50.054;8.790;2022-12-18T09:03:36;34.67;;;16.92;;
38603;SDS011;24924;50.054;8.790;2022-12-18T09:06:03;32.75;;;17.10;;
38603;SDS011;24924;50.054;8.790;2022-12-18T09:08:29;29.90;;;16.60;;
38603;SDS011;24924;50.054;8.790;2022-12-18T09:10:55;32.15;;;16.08;;
38603;SDS011;24924;50.054;8.790;2022-12-18T09:13:21;38.65;;;18.80;;
38603;SDS011;24924;50.054;8.790;2022-12-18T09:15:49;28.70;;;17.13;;
38603;SDS011;24924;50.054;8.790;2022-12-18T09:18:18;33.05;;;16.92;;
38603;SDS011;24924;50.054;8.790;2022-12-18T09:20:45;30.53;;;16.60;;
38603;SDS011;24924;50.054;8.790;2022-12-18T09:23:11;40.15;;;19.30;;
38603;SDS011;24924;50.054;8.790;2022-12-18T09:25:38;34.80;;;17.50;;
38603;SDS011;24924;50.054;8.790;2022-12-18T09:28:13;37.97;;;17.30;;
38603;SDS011;24924;50.054;8.790;2022-12-18T09:30:42;33.67;;;18.98;;
38603;SDS011;24924;50.054;8.790;2022-12-18T09:33:15;39.50;;;17.93;;
38603;SDS011;24924;50.054;8.790;2022-12-18T09:35:42;38.70;;;20.30;;
38603;SDS011;24924;50.054;8.790;2022-12-18T09:38:13;31.52;;;16.30;;
38603;SDS011;24924;50.054;8.790;2022-12-18T09:40:44;39.72;;;20.13;;
38603;SDS011;24924;50.054;8.790;2022-12-18T09:43:17;35.10;;;15.80;;
38603;SDS011;24924;50.054;8.790;2022-12-18T09:46:03;32.40;;;16.33;;
38603;SDS011;24924;50.054;8.790;2022-12-18T09:48:37;33.78;;;17.38;;
38603;SDS011;24924;50.054;8.790;2022-12-18T09:51:11;40.42;;;18.33;;
38603;SDS011;24924;50.054;8.790;2022-12-18T09:53:40;33.35;;;18.02;;
38603;SDS011;24924;50.054;8.790;2022-12-18T09:56:12;37.30;;;17.40;;
38603;SDS011;24924;50.054;8.790;2022-12-18T09:58:44;39.03;;;18.33;;
38603;SDS011;24924;50.054;8.790;2022-12-18T10:01:17;22.20;;;12.25;;
38603;SDS011;24924;50.054;8.790;2022-12-18T10:03:44;30.77;;;16.80;;
38603;SDS011;24924;50.054;8.790;2022-12-18T10:06:18;37.10;;;18.38;;
38603;SDS011;24924;50.054;8.790;2022-12-18T10:11:27;31.63;;;15.17;;
38603;SDS011;24924;50.054;8.790;2022-12-18T10:14:02;35.13;;;15.90;;
38603;SDS011;24924;50.054;8.790;2022-12-18T10:19:14;36.47;;;15.95;;
38603;SDS011;24924;50.054;8.790;2022-12-18T10:21:59;34.97;;;16.73;;
38603;SDS011;24924;50.054;8.790;2022-12-18T10:24:35;36.37;;;18.40;;
38603;SDS011;24924;50.054;8.790;2022-12-18T10:27:17;25.60;;;14.65;;
38603;SDS011;24924;50.054;8.790;2022-12-18T10:29:44;30.63;;;16.00;;
38603;SDS011;24924;50.054;8.790;2022-12-18T10:32:18;30.95;;;15.50;;
38603;SDS011;24924;50.054;8.790;2022-12-18T10:34:46;37.63;;;16.35;;
38603;SDS011;24924;50.054;8.790;2022-12-18T10:37:17;31.87;;;16.70;;
38603;SDS011;24924;50.054;8.790;2022-12-18T10:39:44;33.85;;;15.60;;
38603;SDS011;24924;50.054;8.790;2022-12-18T10:42:16;33.55;;;17.33;;
38603;SDS011;24924;50.054;8.790;2022-12-18T10:44:43;30.80;;;15.23;;
38603;SDS011;24924;50.054;8.790;2022-12-18T10:47:15;32.05;;;14.88;;
38603;SDS011;24924;50.054;8.790;2022-12-18T10:49:53;33.87;;;15.27;;
38603;SDS011;24924;50.054;8.790;2022-12-18T10:52:20;29.40;;;14.50;;
38603;SDS011;24924;50.054;8.790;2022-12-18T10:54:58;27.33;;;14.00;;
38603;SDS011;24924;50.054;8.790;2022-12-18T10:57:36;32.13;;;13.45;;
38603;SDS011;24924;50.054;8.790;2022-12-18T11:00:20;35.20;;;15.93;;
38603;SDS011;24924;50.054;8.790;2022-12-18T11:02:47;31.03;;;15.33;;
38603;SDS011;24924;50.054;8.790;2022-12-18T11:05:27;34.95;;;16.05;;
38603;SDS011;24924;50.054;8.790;2022-12-18T11:07:54;25.83;;;12.45;;
38603;SDS011;24924;50.054;8.790;2022-12-18T11:10:31;26.80;;;13.40;;
38603;SDS011;24924;50.054;8.790;2022-12-18T11:13:17;22.75;;;11.98;;
38603;SDS011;24924;50.054;8.790;2022-12-18T11:15:44;40.40;;;18.93;;
38603;SDS011;24924;50.054;8.790;2022-12-18T11:18:29;34.50;;;15.68;;
38603;SDS011;24924;50.054;8.790;2022-12-18T11:21:08;29.25;;;12.43;;
38603;SDS011;24924;50.054;8.790;2022-12-18T11:23:36;29.98;;;14.15;;
38603;SDS011;24924;50.054;8.790;2022-12-18T11:26:03;30.30;;;13.82;;
38603;SDS011;24924;50.054;8.790;2022-12-18T11:28:35;29.55;;;14.10;;
38603;SDS011;24924;50.054;8.790;2022-12-18T11:31:22;31.33;;;14.63;;
38603;SDS011;24924;50.054;8.790;2022-12-18T11:33:53;30.02;;;14.85;;
38603;SDS011;24924;50.054;8.790;2022-12-18T11:36:20;34.80;;;15.77;;
38603;SDS011;24924;50.054;8.790;2022-12-18T11:38:47;23.92;;;12.68;;
38603;SDS011;24924;50.054;8.790;2022-12-18T11:44:11;33.20;;;15.20;;
38603;SDS011;24924;50.054;8.790;2022-12-18T11:46:50;32.83;;;14.93;;
38603;SDS011;24924;50.054;8.790;2022-12-18T11:49:22;39.85;;;16.77;;
38603;SDS011;24924;50.054;8.790;2022-12-18T11:51:51;32.33;;;14.48;;
38603;SDS011;24924;50.054;8.790;2022-12-18T11:54:20;38.67;;;15.63;;
38603;SDS011;24924;50.054;8.790;2022-12-18T11:56:58;36.00;;;17.08;;
38603;SDS011;24924;50.054;8.790;2022-12-18T12:06:56;27.50;;;10.57;;
38603;SDS011;24924;50.054;8.790;2022-12-18T12:09:31;30.60;;;14.60;;
38603;SDS011;24924;50.054;8.790;2022-12-18T12:12:24;37.70;;;16.10;;
38603;SDS011;24924;50.054;8.790;2022-12-18T12:19:51;23.20;;;13.18;;
38603;SDS011;24924;50.054;8.790;2022-12-18T12:32:31;29.33;;;13.43;;
38603;SDS011;24924;50.054;8.790;2022-12-18T12:39:55;22.43;;;11.47;;
38603;SDS011;24924;50.054;8.790;2022-12-18T12:42:31;38.90;;;16.38;;
38603;SDS011;24924;50.054;8.790;2022-12-18T12:45:22;33.80;;;14.02;;
38603;SDS011;24924;50.054;8.790;2022-12-18T12:47:49;24.63;;;13.68;;
38603;SDS011;24924;50.054;8.790;2022-12-18T12:50:17;24.23;;;11.20;;
38603;SDS011;24924;50.054;8.790;2022-12-18T12:52:46;36.07;;;13.93;;
38603;SDS011;24924;50.054;8.790;2022-12-18T12:55:24;28.80;;;11.27;;
38603;SDS011;24924;50.054;8.790;2022-12-18T12:57:59;25.02;;;12.48;;
38603;SDS011;24924;50.054;8.790;2022-12-18T13:00:28;29.08;;;12.25;;
38603;SDS011;24924;50.054;8.790;2022-12-18T13:05:46;33.40;;;14.53;;
38603;SDS011;24924;50.054;8.790;2022-12-18T13:08:28;30.95;;;14.45;;
38603;SDS011;24924;50.054;8.790;2022-12-18T13:10:54;31.63;;;14.23;;
38603;SDS011;24924;50.054;8.790;2022-12-18T13:13:47;18.77;;;10.35;;
38603;SDS011;24924;50.054;8.790;2022-12-18T13:16:14;34.15;;;15.63;;
38603;SDS011;24924;50.054;8.790;2022-12-18T13:18:53;36.50;;;13.53;;
38603;SDS011;24924;50.054;8.790;2022-12-18T13:23:54;33.05;;;14.23;;
38603;SDS011;24924;50.054;8.790;2022-12-18T13:26:28;36.72;;;15.73;;
38603;SDS011;24924;50.054;8.790;2022-12-18T13:28:56;33.05;;;13.50;;
38603;SDS011;24924;50.054;8.790;2022-12-18T13:34:16;36.38;;;14.55;;
38603;SDS011;24924;50.054;8.790;2022-12-18T13:36:43;31.73;;;12.98;;
38603;SDS011;24924;50.054;8.790;2022-12-18T13:39:10;37.55;;;17.58;;
38603;SDS011;24924;50.054;8.790;2022-12-18T13:41:37;39.28;;;16.33;;
38603;SDS011;24924;50.054;8.790;2022-12-18T13:46:48;34.17;;;14.32;;
38603;SDS011;24924;50.054;8.790;2022-12-18T13:49:37;36.78;;;15.50;;
38603;SDS011;24924;50.054;8.790;2022-12-18T13:52:02;34.97;;;13.77;;
38603;SDS011;24924;50.054;8.790;2022-12-18T13:54:36;31.75;;;14.13;;
38603;SDS011;24924;50.054;8.790;2022-12-18T13:57:05;26.83;;;13.37;;
38603;SDS011;24924;50.054;8.790;2022-12-18T13:59:33;30.13;;;13.85;;
38603;SDS011;24924;50.054;8.790;2022-12-18T14:02:12;26.98;;;13.32;;
38603;SDS011;24924;50.054;8.790;2022-12-18T14:04:39;31.52;;;14.55;;
38603;SDS011;24924;50.054;8.790;2022-12-18T14:07:06;29.55;;;14.27;;
38603;SDS011;24924;50.054;8.790;2022-12-18T14:09:37;29.70;;;13.87;;
38603;SDS011;24924;50.054;8.790;2022-12-18T14:12:14;25.20;;;12.13;;
38603;SDS011;24924;50.054;8.790;2022-12-18T14:15:00;35.10;;;13.93;;
38603;SDS011;24924;50.054;8.790;2022-12-18T14:17:26;34.53;;;15.07;;
38603;SDS011;24924;50.054;8.790;2022-12-18T14:19:53;38.30;;;15.32;;
38603;SDS011;24924;50.054;8.790;2022-12-18T14:22:28;32.30;;;14.47;;
38603;SDS011;24924;50.054;8.790;2022-12-18T14:25:05;29.30;;;13.30;;
38603;SDS011;24924;50.054;8.790;2022-12-18T14:27:36;36.60;;;15.07;;
38603;SDS011;24924;50.054;8.790;2022-12-18T14:30:16;37.40;;;14.27;;
38603;SDS011;24924;50.054;8.790;2022-12-18T14:35:41;31.43;;;12.40;;
38603;SDS011;24924;50.054;8.790;2022-12-18T14:38:21;33.45;;;15.35;;
38603;SDS011;24924;50.054;8.790;2022-12-18T14:40:52;28.00;;;12.15;;
38603;SDS011;24924;50.054;8.790;2022-12-18T14:43:18;29.42;;;12.95;;
38603;SDS011;24924;50.054;8.790;2022-12-18T14:45:45;32.25;;;14.32;;
38603;SDS011;24924;50.054;8.790;2022-12-18T14:50:37;33.25;;;14.98;;
38603;SDS011;24924;50.054;8.790;2022-12-18T14:53:03;34.17;;;14.88;;
38603;SDS011;24924;50.054;8.790;2022-12-18T14:55:30;32.83;;;14.88;;
38603;SDS011;24924;50.054;8.790;2022-12-18T14:57:56;24.77;;;13.27;;
38603;SDS011;24924;50.054;8.790;2022-12-18T15:00:24;30.43;;;13.37;;
38603;SDS011;24924;50.054;8.790;2022-12-18T15:02:54;39.40;;;14.80;;
38603;SDS011;24924;50.054;8.790;2022-12-18T15:05:42;25.48;;;12.63;;
38603;SDS011;24924;50.054;8.790;2022-12-18T15:08:27;38.22;;;14.90;;
38603;SDS011;24924;50.054;8.790;2022-12-18T15:10:54;30.30;;;13.80;;
38603;SDS011;24924;50.054;8.790;2022-12-18T15:13:22;36.97;;;15.93;;
38603;SDS011;24924;50.054;8.790;2022-12-18T15:15:50;32.60;;;15.50;;
38603;SDS011;24924;50.054;8.790;2022-12-18T15:18:17;31.42;;;12.57;;
38603;SDS011;24924;50.054;8.790;2022-12-18T15:20:46;34.08;;;14.50;;
38603;SDS011;24924;50.054;8.790;2022-12-18T15:23:17;35.67;;;16.20;;
38603;SDS011;24924;50.054;8.790;2022-12-18T15:25:44;32.35;;;15.00;;
38603;SDS011;24924;50.054;8.790;2022-12-18T15:28:22;29.70;;;14.37;;
38603;SDS011;24924;50.054;8.790;2022-12-18T15:31:34;28.42;;;14.52;;
38603;SDS011;24924;50.054;8.790;2022-12-18T15:36:14;27.75;;;14.07;;
38603;SDS011;24924;50.054;8.790;2022-12-18T15:38:41;33.38;;;14.98;;
38603;SDS011;24924;50.054;8.790;2022-12-18T15:41:13;33.20;;;16.27;;
38603;SDS011;24924;50.054;8.790;2022-12-18T15:43:39;38.83;;;15.38;;
38603;SDS011;24924;50.054;8.790;2022-12-18T15:46:08;37.35;;;15.27;;
38603;SDS011;24924;50.054;8.790;2022-12-18T15:48:35;35.88;;;15.82;;
38603;SDS011;24924;50.054;8.790;2022-12-18T15:51:08;35.05;;;15.68;;
38603;SDS011;24924;50.054;8.790;2022-12-18T15:53:35;40.53;;;16.93;;
38603;SDS011;24924;50.054;8.790;2022-12-18T15:56:01;42.63;;;17.17;;
38603;SDS011;24924;50.054;8.790;2022-12-18T15:58:46;41.58;;;17.67;;
38603;SDS011;24924;50.054;8.790;2022-12-18T16:01:13;40.17;;;16.63;;
38603;SDS011;24924;50.054;8.790;2022-12-18T16:03:39;37.90;;;17.23;;
38603;SDS011;24924;50.054;8.790;2022-12-18T16:06:05;36.80;;;16.43;;
38603;SDS011;24924;50.054;8.790;2022-12-18T16:08:32;33.20;;;15.70;;
38603;SDS011;24924;50.054;8.790;2022-12-18T16:10:59;36.88;;;15.85;;
38603;SDS011;24924;50.054;8.790;2022-12-18T16:13:25;39.70;;;16.92;;
38603;SDS011;24924;50.054;8.790;2022-12-18T16:15:52;37.35;;;16.40;;
38603;SDS011;24924;50.054;8.790;2022-12-18T16:18:18;36.03;;;17.47;;
38603;SDS011;24924;50.054;8.790;2022-12-18T16:20:45;35.53;;;17.02;;
38603;SDS011;24924;50.054;8.790;2022-12-18T16:23:11;39.47;;;16.45;;
38603;SDS011;24924;50.054;8.790;2022-12-18T16:25:38;39.78;;;16.35;;
38603;SDS011;24924;50.054;8.790;2022-12-18T16:28:04;39.63;;;17.05;;
38603;SDS011;24924;50.054;8.790;2022-12-18T16:30:30;41.20;;;18.00;;
38603;SDS011;24924;50.054;8.790;2022-12-18T16:32:57;39.00;;;15.60;;
38603;SDS011;24924;50.054;8.790;2022-12-18T16:35:23;35.72;;;16.13;;
38603;SDS011;24924;50.054;8.790;2022-12-18T16:37:49;36.42;;;16.10;;
38603;SDS011;24924;50.054;8.790;2022-12-18T16:40:16;35.05;;;16.58;;
38603;SDS011;24924;50.054;8.790;2022-12-18T16:42:44;40.30;;;15.47;;
38603;SDS011;24924;50.054;8.790;2022-12-18T16:45:12;34.33;;;15.68;;
38603;SDS011;24924;50.054;8.790;2022-12-18T16:47:39;36.15;;;15.40;;
38603;SDS011;24924;50.054;8.790;2022-12-18T16:50:06;31.50;;;16.08;;
38603;SDS011;24924;50.054;8.790;2022-12-18T16:52:33;37.38;;;15.20;;
38603;SDS011;24924;50.054;8.790;2022-12-18T16:54:59;31.90;;;15.27;;
38603;SDS011;24924;50.054;8.790;2022-12-18T16:57:25;30.67;;;14.50;;
38603;SDS011;24924;50.054;8.790;2022-12-18T16:59:51;38.53;;;16.08;;
38603;SDS011;24924;50.054;8.790;2022-12-18T17:02:21;35.95;;;16.67;;
38603;SDS011;24924;50.054;8.790;2022-12-18T17:04:47;36.22;;;14.95;;
38603;SDS011;24924;50.054;8.790;2022-12-18T17:07:14;40.80;;;17.90;;
38603;SDS011;24924;50.054;8.790;2022-12-18T17:09:40;37.67;;;16.63;;
38603;SDS011;24924;50.054;8.790;2022-12-18T17:12:07;39.40;;;18.27;;
38603;SDS011;24924;50.054;8.790;2022-12-18T17:14:34;43.75;;;18.98;;
38603;SDS011;24924;50.054;8.790;2022-12-18T17:17:01;46.85;;;18.88;;
38603;SDS011;24924;50.054;8.790;2022-12-18T17:19:27;40.53;;;18.63;;
38603;SDS011;24924;50.054;8.790;2022-12-18T17:21:54;35.40;;;16.42;;
38603;SDS011;24924;50.054;8.790;2022-12-18T17:24:20;37.90;;;18.67;;
38603;SDS011;24924;50.054;8.790;2022-12-18T17:26:46;38.92;;;18.23;;
38603;SDS011;24924;50.054;8.790;2022-12-18T17:29:14;40.40;;;17.50;;
38603;SDS011;24924;50.054;8.790;2022-12-18T17:31:40;43.13;;;17.70;;
38603;SDS011;24924;50.054;8.790;2022-12-18T17:34:08;34.70;;;17.00;;
38603;SDS011;24924;50.054;8.790;2022-12-18T17:36:34;36.50;;;16.50;;
38603;SDS011;24924;50.054;8.790;2022-12-18T17:39:01;35.70;;;16.38;;
38603;SDS011;24924;50.054;8.790;2022-12-18T17:41:28;34.97;;;15.68;;
38603;SDS011;24924;50.054;8.790;2022-12-18T17:43:59;40.00;;;16.97;;
38603;SDS011;24924;50.054;8.790;2022-12-18T17:46:26;39.78;;;18.75;;
38603;SDS011;24924;50.054;8.790;2022-12-18T17:48:55;36.88;;;15.93;;
38603;SDS011;24924;50.054;8.790;2022-12-18T17:51:22;40.50;;;16.77;;
38603;SDS011;24924;50.054;8.790;2022-12-18T17:53:48;36.40;;;17.67;;
38603;SDS011;24924;50.054;8.790;2022-12-18T17:56:16;41.57;;;18.13;;
38603;SDS011;24924;50.054;8.790;2022-12-18T17:58:43;43.85;;;20.52;;
38603;SDS011;24924;50.054;8.790;2022-12-18T18:01:16;41.30;;;18.85;;
38603;SDS011;24924;50.054;8.790;2022-12-18T18:03:43;39.60;;;18.70;;
38603;SDS011;24924;50.054;8.790;2022-12-18T18:06:10;39.13;;;17.55;;
38603;SDS011;24924;50.054;8.790;2022-12-18T18:08:36;36.53;;;17.73;;
38603;SDS011;24924;50.054;8.790;2022-12-18T18:11:05;39.90;;;17.05;;
38603;SDS011;24924;50.054;8.790;2022-12-18T18:13:51;39.45;;;18.23;;
38603;SDS011;24924;50.054;8.790;2022-12-18T18:16:31;37.80;;;18.15;;
38603;SDS011;24924;50.054;8.790;2022-12-18T18:19:00;44.08;;;19.05;;
38603;SDS011;24924;50.054;8.790;2022-12-18T18:21:27;43.37;;;18.50;;
38603;SDS011;24924;50.054;8.790;2022-12-18T18:23:53;41.67;;;18.38;;
38603;SDS011;24924;50.054;8.790;2022-12-18T18:26:19;34.95;;;17.05;;
38603;SDS011;24924;50.054;8.790;2022-12-18T18:28:46;33.45;;;16.00;;
38603;SDS011;24924;50.054;8.790;2022-12-18T18:31:13;36.92;;;14.82;;
38603;SDS011;24924;50.054;8.790;2022-12-18T18:33:39;27.57;;;14.50;;
38603;SDS011;24924;50.054;8.790;2022-12-18T18:36:08;30.10;;;15.52;;
38603;SDS011;24924;50.054;8.790;2022-12-18T18:38:34;25.77;;;12.40;;
38603;SDS011;24924;50.054;8.790;2022-12-18T18:41:01;33.85;;;14.80;;
38603;SDS011;24924;50.054;8.790;2022-12-18T18:43:28;39.00;;;15.13;;
38603;SDS011;24924;50.054;8.790;2022-12-18T18:45:55;35.07;;;16.43;;
38603;SDS011;24924;50.054;8.790;2022-12-18T18:48:21;36.28;;;15.32;;
38603;SDS011;24924;50.054;8.790;2022-12-18T18:50:54;24.10;;;12.82;;
38603;SDS011;24924;50.054;8.790;2022-12-18T18:53:21;33.28;;;14.73;;
38603;SDS011;24924;50.054;8.790;2022-12-18T18:55:48;24.02;;;11.85;;
38603;SDS011;24924;50.054;8.790;2022-12-18T18:58:14;33.70;;;14.73;;
38603;SDS011;24924;50.054;8.790;2022-12-18T19:00:40;32.28;;;14.82;;
